createdAt,value
2023-10-03T00:00:50.863Z,47.50
2023-10-03T00:05:52.607Z,47.68
2023-10-03T00:10:54.517Z,47.81
2023-10-03T00:15:55.873Z,47.77
2023-10-03T00:20:57.267Z,47.90
2023-10-03T00:26:00.320Z,47.75
2023-10-03T00:31:01.979Z,47.75
2023-10-03T00:36:04.350Z,47.97
2023-10-03T00:41:06.539Z,47.97
2023-10-03T00:46:08.541Z,47.98
2023-10-03T00:51:10.108Z,48.07
2023-10-03T00:56:11.589Z,48.09
2023-10-03T01:01:13.427Z,47.95
2023-10-03T01:06:16.454Z,47.90
2023-10-03T01:11:18.910Z,48.16
2023-10-03T01:16:28.873Z,47.98
2023-10-03T01:21:31.298Z,48.22
2023-10-03T01:26:35.787Z,48.06
2023-10-03T01:31:37.217Z,48.14
2023-10-03T01:36:40.937Z,48.05
2023-10-03T01:41:43.553Z,48.12
2023-10-03T01:46:46.520Z,48.11
2023-10-03T01:51:47.981Z,48.24
2023-10-03T01:56:49.430Z,48.53
2023-10-03T02:01:50.949Z,48.44
2023-10-03T02:06:53.562Z,48.30
2023-10-03T02:11:55.714Z,48.52
2023-10-03T02:16:58.603Z,48.50
2023-10-03T02:22:00.581Z,48.45
2023-10-03T02:27:07.310Z,48.54
2023-10-03T02:32:09.551Z,48.61
2023-10-03T02:37:13.747Z,48.84
2023-10-03T02:42:15.741Z,48.65
2023-10-03T02:47:17.348Z,48.91
2023-10-03T02:52:19.888Z,48.78
2023-10-03T02:57:22.080Z,48.60
2023-10-03T03:02:23.571Z,48.75
2023-10-03T03:07:28.720Z,48.99
2023-10-03T03:12:30.615Z,48.86
2023-10-03T03:17:32.172Z,48.80
2023-10-03T03:22:33.904Z,48.94
2023-10-03T03:27:42.122Z,48.90
2023-10-03T03:32:43.567Z,48.97
2023-10-03T03:37:45.083Z,48.81
2023-10-03T03:42:46.700Z,49.00
2023-10-03T03:47:51.488Z,48.94
2023-10-03T03:52:54.281Z,49.00
2023-10-03T03:57:55.994Z,48.85
2023-10-03T04:03:02.306Z,49.03
2023-10-03T04:08:05.990Z,49.04
2023-10-03T04:13:11.522Z,48.95
2023-10-03T04:18:14.567Z,48.98
2023-10-03T04:23:15.985Z,49.03
2023-10-03T04:28:17.669Z,49.11
2023-10-03T04:33:22.271Z,49.02
2023-10-03T04:38:23.882Z,49.27
2023-10-03T04:43:28.232Z,49.26
2023-10-03T04:48:29.760Z,49.25
2023-10-03T04:53:31.456Z,49.24
2023-10-03T04:58:32.866Z,49.23
2023-10-03T05:03:34.369Z,49.31
2023-10-03T05:08:35.958Z,49.48
2023-10-03T05:13:37.719Z,49.59
2023-10-03T05:18:40.835Z,49.56
2023-10-03T05:23:42.497Z,49.54
2023-10-03T05:28:45.806Z,49.78
2023-10-03T05:33:47.337Z,49.64
2023-10-03T05:38:48.977Z,49.71
2023-10-03T05:43:50.652Z,49.61
2023-10-03T05:48:53.219Z,49.83
2023-10-03T05:53:55.144Z,49.76
2023-10-03T05:58:56.563Z,49.86
2023-10-03T06:03:58.742Z,50.06
2023-10-03T06:09:01.406Z,49.95
2023-10-03T06:14:04.808Z,49.97
2023-10-03T06:19:08.491Z,50.08
2023-10-03T06:24:09.929Z,49.93
2023-10-03T06:29:11.330Z,49.97
2023-10-03T06:34:12.887Z,49.93
2023-10-03T06:39:14.340Z,49.97
2023-10-03T06:44:15.733Z,49.94
2023-10-03T06:49:18.746Z,49.83
2023-10-03T06:54:20.151Z,49.70
2023-10-03T06:59:21.568Z,49.79
2023-10-03T07:04:23.028Z,49.94
2023-10-03T07:09:24.495Z,49.83
2023-10-03T07:14:25.952Z,49.70
2023-10-03T07:19:27.350Z,49.84
2023-10-03T07:24:30.090Z,49.74
2023-10-03T07:29:31.605Z,49.75
2023-10-03T07:34:33.041Z,49.87
2023-10-03T07:39:34.387Z,49.92
2023-10-03T07:44:37.263Z,49.86
2023-10-03T07:49:38.813Z,49.75
2023-10-03T07:54:40.232Z,49.75
2023-10-03T07:59:44.668Z,49.65
2023-10-03T08:04:49.342Z,49.72
2023-10-03T08:09:50.992Z,49.55
2023-10-03T08:14:54.055Z,49.56
2023-10-03T08:19:56.121Z,49.71
2023-10-03T08:24:57.488Z,49.42
2023-10-03T08:29:59.571Z,49.27
2023-10-03T08:35:01.123Z,49.23
2023-10-03T08:40:02.572Z,49.00
2023-10-03T08:45:17.920Z,48.69
2023-10-03T08:50:36.244Z,48.52
2023-10-03T08:55:39.495Z,48.34
2023-10-03T09:00:43.776Z,47.87
2023-10-03T09:05:45.734Z,47.52
2023-10-03T09:10:54.232Z,47.58
2023-10-03T09:16:08.312Z,47.29
2023-10-03T09:21:17.120Z,47.21
2023-10-03T09:26:20.613Z,47.12
2023-10-03T09:31:23.340Z,46.99
2023-10-03T09:36:29.509Z,46.87
2023-10-03T09:41:31.365Z,46.96
2023-10-03T09:46:41.671Z,46.75
2023-10-03T09:51:52.442Z,46.56
2023-10-03T09:56:56.919Z,46.51
2023-10-03T10:02:00.678Z,46.28
2023-10-03T10:07:18.200Z,45.94
2023-10-03T10:12:20.459Z,46.03
2023-10-03T10:17:22.564Z,45.64
2023-10-03T10:22:28.085Z,45.44
2023-10-03T10:27:30.506Z,45.29
2023-10-03T10:32:32.319Z,45.36
2023-10-03T10:37:50.819Z,44.96
2023-10-03T10:42:55.948Z,45.15
2023-10-03T10:47:57.700Z,45.04
2023-10-03T10:53:03.832Z,44.68
2023-10-03T10:58:13.147Z,44.88
2023-10-03T11:03:21.069Z,44.74
2023-10-03T11:08:22.917Z,44.60
2023-10-03T11:13:24.957Z,44.42
2023-10-03T11:18:30.547Z,44.22
2023-10-03T11:23:32.318Z,44.13
2023-10-03T11:28:44.612Z,43.18
2023-10-03T11:33:46.922Z,43.30
2023-10-03T11:38:50.313Z,43.61
2023-10-03T11:43:51.700Z,43.31
2023-10-03T11:48:59.984Z,43.27
2023-10-03T11:54:01.435Z,43.24
2023-10-03T11:59:03.020Z,42.81
2023-10-03T12:04:04.878Z,42.82
2023-10-03T12:09:10.409Z,42.62
2023-10-03T12:14:11.997Z,42.42
2023-10-03T12:19:13.389Z,42.43
2023-10-03T12:24:15.236Z,42.53
2023-10-03T12:29:16.653Z,42.57
2023-10-03T12:34:18.395Z,42.47
2023-10-03T12:39:22.048Z,42.42
2023-10-03T12:44:23.789Z,42.47
2023-10-03T12:49:25.674Z,42.13
2023-10-03T12:54:28.105Z,41.77
2023-10-03T12:59:29.475Z,41.34
2023-10-03T13:04:30.928Z,40.76
2023-10-03T13:09:32.428Z,40.46
2023-10-03T13:14:34.053Z,40.68
2023-10-03T13:19:35.756Z,40.89
2023-10-03T13:24:37.962Z,40.99
2023-10-03T13:29:40.468Z,40.68
2023-10-03T13:34:42.240Z,40.33
2023-10-03T13:39:43.682Z,40.15
2023-10-03T13:44:48.937Z,39.91
2023-10-03T13:49:50.593Z,40.03
2023-10-03T13:54:52.010Z,39.94
2023-10-03T13:59:53.881Z,40.37
2023-10-03T14:04:55.432Z,40.09
2023-10-03T14:09:56.899Z,39.88
2023-10-03T14:14:58.899Z,40.25
2023-10-03T14:20:00.645Z,40.24
2023-10-03T14:25:02.073Z,40.19
2023-10-03T14:30:05.035Z,40.29
2023-10-03T14:35:08.987Z,40.46
2023-10-03T14:40:16.740Z,40.55
2023-10-03T14:45:20.505Z,40.77
2023-10-03T14:50:23.909Z,40.84
2023-10-03T14:55:28.830Z,41.20
2023-10-03T15:00:30.326Z,41.12
2023-10-03T15:05:31.728Z,41.30
2023-10-03T15:10:33.607Z,41.39
2023-10-03T15:15:35.012Z,41.76
2023-10-03T15:20:36.438Z,42.05
2023-10-03T15:25:40.050Z,42.49
2023-10-03T15:30:49.529Z,42.51
2023-10-03T15:35:51.743Z,42.43
2023-10-03T15:40:53.376Z,42.46
2023-10-03T15:45:54.819Z,42.40
2023-10-03T15:50:56.395Z,42.33
2023-10-03T15:55:59.442Z,42.72
2023-10-03T16:01:00.955Z,46.61
2023-10-03T16:06:02.470Z,52.30
2023-10-03T16:11:05.278Z,54.89
2023-10-03T16:16:06.909Z,56.42
2023-10-03T16:21:08.503Z,57.76
2023-10-03T16:26:09.961Z,58.73
2023-10-03T16:31:12.170Z,59.70
2023-10-03T16:36:13.597Z,60.97
2023-10-03T16:41:15.033Z,61.91
2023-10-03T16:46:16.750Z,63.44
2023-10-03T16:51:18.850Z,66.37
2023-10-03T16:56:20.301Z,71.55
2023-10-03T17:01:21.691Z,74.91
2023-10-03T17:06:23.270Z,77.88
2023-10-03T17:11:26.789Z,79.20
2023-10-03T17:16:28.790Z,80.42
2023-10-03T17:21:30.392Z,80.61
2023-10-03T17:26:32.420Z,81.14
2023-10-03T17:31:33.791Z,81.85
2023-10-03T17:36:35.471Z,82.72
2023-10-03T17:41:37.841Z,82.92
2023-10-03T17:46:39.332Z,83.48
2023-10-03T17:51:40.998Z,83.76
2023-10-03T17:56:42.414Z,83.95
2023-10-03T18:01:43.873Z,84.45
2023-10-03T18:06:45.374Z,84.91
2023-10-03T18:11:48.127Z,85.26
2023-10-03T18:16:49.549Z,85.77
2023-10-03T18:21:51.124Z,86.43
2023-10-03T18:26:52.582Z,86.50
2023-10-03T18:31:54.006Z,86.64
2023-10-03T18:36:55.467Z,86.92
2023-10-03T18:41:56.961Z,87.25
2023-10-03T18:46:58.437Z,87.60
2023-10-03T18:51:59.821Z,87.70
2023-10-03T18:57:01.320Z,87.93
2023-10-03T19:02:02.861Z,87.94
2023-10-03T19:07:05.390Z,87.85
2023-10-03T19:12:07.576Z,88.12
2023-10-03T19:17:09.084Z,87.64
2023-10-03T19:22:10.694Z,87.60
2023-10-03T19:27:12.158Z,87.95
2023-10-03T19:32:13.695Z,88.01
2023-10-03T19:37:15.145Z,88.41
2023-10-03T19:42:17.503Z,89.02
2023-10-03T19:47:19.047Z,89.80
2023-10-03T19:52:20.853Z,89.61
2023-10-03T19:57:22.328Z,88.61
2023-10-03T20:02:25.156Z,89.19
2023-10-03T20:07:26.663Z,89.34
2023-10-03T20:12:28.129Z,90.25
2023-10-03T20:17:29.868Z,90.58
2023-10-03T20:22:31.407Z,91.63
2023-10-03T20:27:33.600Z,89.96
2023-10-03T20:32:35.077Z,89.29
2023-10-03T20:37:36.625Z,90.19
2023-10-03T20:42:39.904Z,90.30
2023-10-03T20:47:41.637Z,89.71
2023-10-03T20:52:43.230Z,90.64
2023-10-03T20:57:44.599Z,90.46
2023-10-03T21:02:46.051Z,90.69
2023-10-03T21:07:48.760Z,90.67
2023-10-03T21:12:51.090Z,90.57
2023-10-03T21:17:52.745Z,90.20
2023-10-03T21:22:55.282Z,89.78
2023-10-03T21:27:56.771Z,90.30
2023-10-03T21:32:58.230Z,90.26
2023-10-03T21:37:59.669Z,90.20
2023-10-03T21:43:02.309Z,90.25
2023-10-03T21:48:03.963Z,90.47
2023-10-03T21:53:05.729Z,90.07
2023-10-03T21:58:07.118Z,89.86
2023-10-03T22:03:10.098Z,89.83
2023-10-03T22:08:11.530Z,89.97
2023-10-03T22:13:16.411Z,89.86
2023-10-03T22:18:17.859Z,90.06
2023-10-03T22:23:21.037Z,89.65
2023-10-03T22:28:22.521Z,89.17
2023-10-03T22:33:23.921Z,89.03
2023-10-03T22:38:25.538Z,88.96
2023-10-03T22:43:26.908Z,88.80
2023-10-03T22:48:28.389Z,88.30
2023-10-03T22:53:29.803Z,87.87
2023-10-03T22:58:31.184Z,87.99
2023-10-03T23:03:32.651Z,88.07
2023-10-03T23:08:34.048Z,87.87
2023-10-03T23:13:35.890Z,87.47
2023-10-03T23:18:37.553Z,87.22
2023-10-03T23:23:39.049Z,87.15
2023-10-03T23:28:40.762Z,87.26
2023-10-03T23:33:42.151Z,86.50
2023-10-03T23:38:43.611Z,86.69
2023-10-03T23:43:47.149Z,86.44
2023-10-03T23:48:49.020Z,86.79
2023-10-03T23:53:50.704Z,86.36
2023-10-03T23:58:53.280Z,86.69
